Time;durP1;ratioP1;P1;durP2;ratioP2;P2;SDS_P1;SDS_P2;PMS_P1;PMS_P2;Temp;Humidity;BMP_temperature;BMP_pressure;BME280_temperature;BME280_humidity;BME280_pressure;Samples;Min_cycle;Max_cycle;Signal;HPM_P1;HPM_P2
2022/04/29 00:00:48;;;;;;;6.68;3.58;;;;;;;-143.53;100.00;58366.03;2074744;28;20193;-67
2022/04/29 00:01:49;;;;;;;9.40;3.88;;;;;;;-143.53;100.00;58366.03;2079222;28;20201;-67
2022/04/29 00:02:51;;;;;;;7.35;4.75;;;;;;;-143.53;100.00;58366.03;2080709;28;20196;-67
2022/04/29 00:03:53;;;;;;;5.43;4.60;;;;;;;-143.53;100.00;58366.03;2085273;28;20197;-67
2022/04/29 00:04:56;;;;;;;6.30;4.03;;;;;;;-143.53;100.00;58366.03;2083471;28;20768;-67
2022/04/29 00:05:58;;;;;;;8.95;4.25;;;;;;;-143.53;100.00;58366.03;2077954;28;20266;-67
2022/04/29 00:07:00;;;;;;;7.40;4.30;;;;;;;-143.53;100.00;58366.03;2089612;28;20195;-67
2022/04/29 00:08:03;;;;;;;6.95;5.20;;;;;;;-143.53;100.00;58366.03;2084472;28;20197;-67
2022/04/29 00:09:04;;;;;;;9.00;5.10;;;;;;;-143.53;100.00;58366.03;2082897;28;20204;-67
2022/04/29 00:10:08;;;;;;;7.10;4.90;;;;;;;-143.53;100.00;58366.03;2083014;28;20189;-67
2022/04/29 00:11:09;;;;;;;11.20;5.57;;;;;;;-143.53;100.00;58366.03;2072298;28;20243;-67
2022/04/29 00:12:11;;;;;;;6.53;4.30;;;;;;;-143.53;100.00;58366.03;2089100;28;20233;-67
2022/04/29 00:13:14;;;;;;;8.50;5.03;;;;;;;-143.53;100.00;58366.03;2084448;28;20219;-67
2022/04/29 00:14:15;;;;;;;9.30;5.30;;;;;;;-143.53;100.00;58366.03;2083974;28;20228;-67
2022/04/29 00:15:18;;;;;;;11.85;4.93;;;;;;;-143.53;100.00;58366.03;2084479;28;20211;-67
2022/04/29 00:16:19;;;;;;;8.90;5.03;;;;;;;-143.53;100.00;58366.03;2083331;28;20223;-67
2022/04/29 00:17:21;;;;;;;11.02;4.40;;;;;;;-143.53;100.00;58366.03;2089689;28;20258;-67
2022/04/29 00:18:23;;;;;;;6.68;4.75;;;;;;;-143.53;100.00;58366.03;2084660;28;20205;-67
2022/04/29 00:19:26;;;;;;;7.97;3.72;;;;;;;-143.53;100.00;58366.03;2086689;28;20208;-67
2022/04/29 00:20:28;;;;;;;7.15;4.15;;;;;;;-143.53;100.00;58366.03;2085023;28;20200;-67
2022/04/29 00:21:30;;;;;;;6.43;4.15;;;;;;;-143.53;100.00;58366.03;2078619;28;20230;-67
2022/04/29 00:22:31;;;;;;;6.72;4.00;;;;;;;-143.53;100.00;58366.03;2085337;28;20215;-67
2022/04/29 00:23:33;;;;;;;7.75;4.00;;;;;;;-143.53;100.00;58366.03;2083873;28;20205;-66
2022/04/29 00:24:34;;;;;;;9.43;4.72;;;;;;;-143.53;100.00;58366.03;2084577;28;20316;-67
2022/04/29 00:25:36;;;;;;;8.05;4.30;;;;;;;-143.53;100.00;58366.03;2075262;28;20196;-66
2022/04/29 00:26:39;;;;;;;10.27;5.22;;;;;;;-143.53;100.00;58366.03;2089008;28;20747;-66
2022/04/29 00:27:41;;;;;;;10.88;4.60;;;;;;;-143.53;100.00;58366.03;2087779;28;20199;-67
2022/04/29 00:28:43;;;;;;;9.23;4.45;;;;;;;-143.53;100.00;58366.03;2086101;28;20861;-67
2022/04/29 00:29:44;;;;;;;5.47;4.13;;;;;;;-143.53;100.00;58366.03;2084119;28;20208;-66
2022/04/29 00:30:46;;;;;;;5.50;4.65;;;;;;;-143.53;100.00;58366.03;2073557;28;20199;-66
2022/04/29 00:31:47;;;;;;;5.82;4.00;;;;;;;-143.53;100.00;58366.03;2085896;28;20200;-67
2022/04/29 00:32:49;;;;;;;5.57;4.15;;;;;;;-143.53;100.00;58366.03;2085238;28;20204;-67
2022/04/29 00:33:51;;;;;;;11.38;3.88;;;;;;;-143.53;100.00;58366.03;2083481;28;20196;-67
2022/04/29 00:34:52;;;;;;;8.35;4.35;;;;;;;-143.53;100.00;58366.03;2083652;28;20192;-67
2022/04/29 00:35:54;;;;;;;5.47;3.63;;;;;;;-143.53;100.00;58366.03;2076506;28;20228;-66
2022/04/29 00:36:55;;;;;;;8.95;4.15;;;;;;;-143.53;100.00;58366.03;2088699;28;20250;-67
2022/04/29 00:37:58;;;;;;;4.40;3.92;;;;;;;-143.53;100.00;58366.03;2087791;28;20236;-67
2022/04/29 00:38:59;;;;;;;6.97;4.70;;;;;;;-143.53;100.00;58366.03;2084950;28;20203;-67
2022/04/29 00:40:01;;;;;;;6.70;3.97;;;;;;;-143.53;100.00;58366.03;2083780;28;20200;-66
2022/04/29 00:41:02;;;;;;;7.88;4.13;;;;;;;-143.53;100.00;58366.03;2077230;28;20588;-66
2022/04/29 00:42:14;;;;;;;6.63;4.18;;;;;;;-143.53;100.00;58366.03;2088471;28;20200;-66
2022/04/29 00:43:16;;;;;;;5.22;3.63;;;;;;;-143.53;100.00;58366.03;2086318;28;20223;-66
2022/04/29 00:44:17;;;;;;;7.18;3.90;;;;;;;-143.53;100.00;58366.03;2085459;28;20700;-67
2022/04/29 00:45:21;;;;;;;5.78;4.25;;;;;;;-143.53;100.00;58366.03;2085382;28;20197;-67
2022/04/29 00:46:22;;;;;;;6.43;4.40;;;;;;;-143.53;100.00;58366.03;2083889;28;20259;-67
2022/04/29 00:47:23;;;;;;;8.50;3.70;;;;;;;-143.53;100.00;58366.03;2084076;28;20622;-67
2022/04/29 00:48:25;;;;;;;7.53;5.05;;;;;;;-143.53;100.00;58366.03;2085712;28;20197;-66
2022/04/29 00:49:27;;;;;;;13.18;4.80;;;;;;;-143.53;100.00;58366.03;2087602;28;20200;-67
2022/04/29 00:50:29;;;;;;;6.75;4.70;;;;;;;-143.53;100.00;58366.03;2081906;28;20204;-65
2022/04/29 00:51:32;;;;;;;6.72;4.25;;;;;;;-143.53;100.00;58366.03;2090573;28;20212;-67
2022/04/29 00:52:38;;;;;;;6.28;4.05;;;;;;;-143.53;100.00;58366.03;2092205;28;20828;-67
2022/04/29 00:53:39;;;;;;;8.80;5.03;;;;;;;-143.53;100.00;58366.03;2084842;28;20197;-67
2022/04/29 00:54:45;;;;;;;7.05;5.53;;;;;;;-143.53;100.00;58366.03;2081690;28;20204;-66
2022/04/29 00:55:47;;;;;;;10.18;5.35;;;;;;;-143.53;100.00;58366.03;2074954;28;20212;-66
2022/04/29 00:56:51;;;;;;;7.38;5.00;;;;;;;-143.53;100.00;58366.03;2088466;28;20203;-67
2022/04/29 00:58:16;;;;;;;12.93;5.47;;;;;;;-143.53;100.00;58366.03;2086536;28;20204;-66
2022/04/29 00:59:26;;;;;;;10.02;4.00;;;;;;;-143.53;100.00;58366.03;2083828;28;20243;-69
2022/04/29 01:00:28;;;;;;;8.13;4.90;;;;;;;-143.53;100.00;58366.03;2081039;28;20198;-67
2022/04/29 01:01:33;;;;;;;7.82;4.75;;;;;;;-143.53;100.00;58366.03;2075947;28;20225;-68
2022/04/29 01:02:41;;;;;;;9.15;4.75;;;;;;;-143.53;100.00;58366.03;2085850;28;20193;-67
2022/04/29 01:03:46;;;;;;;8.32;4.63;;;;;;;-143.53;100.00;58366.03;2084640;28;20189;-68
2022/04/29 01:05:05;;;;;;;8.07;4.72;;;;;;;-143.53;100.00;58366.03;2086117;28;20189;-68
2022/04/29 01:06:07;;;;;;;6.80;4.97;;;;;;;-143.53;100.00;58366.03;2075685;28;20216;-68
2022/04/29 01:07:09;;;;;;;9.82;4.97;;;;;;;-143.53;100.00;58366.03;2087433;28;20208;-69
2022/04/29 01:08:10;;;;;;;5.82;4.45;;;;;;;-143.53;100.00;58366.03;2084959;28;20193;-68
2022/04/29 01:09:12;;;;;;;7.60;4.93;;;;;;;-143.53;100.00;58366.03;2085501;28;20192;-68
2022/04/29 01:10:15;;;;;;;6.93;4.90;;;;;;;-143.53;100.00;58366.03;2085942;28;20212;-69
2022/04/29 01:11:21;;;;;;;9.68;5.22;;;;;;;-143.53;100.00;58366.03;2082101;28;20223;-68
2022/04/29 01:12:25;;;;;;;7.13;4.97;;;;;;;-143.53;100.00;58366.03;2088418;28;20192;-69
2022/04/29 01:13:27;;;;;;;8.85;5.10;;;;;;;-143.53;100.00;58366.03;2085724;28;20196;-69
2022/04/29 01:14:28;;;;;;;8.20;5.72;;;;;;;-143.53;100.00;58366.03;2087893;28;20204;-69
2022/04/29 01:15:31;;;;;;;14.85;5.28;;;;;;;-143.53;100.00;58366.03;2075537;28;20203;-68
2022/04/29 01:16:32;;;;;;;9.27;5.60;;;;;;;-143.53;100.00;58366.03;2083983;28;20564;-69
2022/04/29 01:17:36;;;;;;;10.02;5.57;;;;;;;-143.53;100.00;58366.03;2084308;28;20209;-69
2022/04/29 01:18:38;;;;;;;14.80;5.30;;;;;;;-143.53;100.00;58366.03;2083781;28;20201;-69
2022/04/29 01:19:39;;;;;;;7.80;5.55;;;;;;;-143.53;100.00;58366.03;2084842;28;20544;-69
2022/04/29 01:20:42;;;;;;;6.75;4.90;;;;;;;-143.53;100.00;58366.03;2075320;28;20719;-68
2022/04/29 01:21:44;;;;;;;15.23;5.75;;;;;;;-143.53;100.00;58366.03;2089639;28;20200;-69
2022/04/29 01:22:46;;;;;;;8.25;5.07;;;;;;;-143.53;100.00;58366.03;2088705;28;20196;-69
2022/04/29 01:23:47;;;;;;;7.93;5.80;;;;;;;-143.53;100.00;58366.03;2086356;28;20204;-69
2022/04/29 01:24:50;;;;;;;10.32;4.97;;;;;;;-143.53;100.00;58366.03;2085233;28;20778;-69
2022/04/29 01:25:51;;;;;;;8.20;4.60;;;;;;;-143.53;100.00;58366.03;2074779;28;21204;-69
2022/04/29 01:26:53;;;;;;;9.70;5.85;;;;;;;-143.53;100.00;58366.03;2086261;28;20205;-69
2022/04/29 01:27:54;;;;;;;8.75;5.18;;;;;;;-143.53;100.00;58366.03;2081488;28;20201;-68
2022/04/29 01:28:57;;;;;;;8.30;5.05;;;;;;;-143.53;100.00;58366.03;2082049;28;20715;-69
2022/04/29 01:30:07;;;;;;;9.70;5.93;;;;;;;-143.53;100.00;58366.03;2082203;28;20204;-69
2022/04/29 01:31:11;;;;;;;9.15;4.85;;;;;;;-143.53;100.00;58366.03;2076286;28;20228;-69
2022/04/29 01:32:13;;;;;;;14.38;5.40;;;;;;;-143.53;100.00;58366.03;2088342;28;20200;-69
2022/04/29 01:33:16;;;;;;;6.47;4.70;;;;;;;-143.53;100.00;58366.03;2084324;28;20250;-69
2022/04/29 01:34:18;;;;;;;10.15;5.60;;;;;;;-143.53;100.00;58366.03;2083787;28;20330;-69
2022/04/29 01:35:19;;;;;;;6.65;4.55;;;;;;;-143.53;100.00;58366.03;2084738;28;20549;-69
2022/04/29 01:36:21;;;;;;;6.82;5.05;;;;;;;-143.53;100.00;58366.03;2075022;28;20805;-69
2022/04/29 01:37:22;;;;;;;9.65;5.30;;;;;;;-143.53;100.00;58366.03;2083377;28;20211;-69
2022/04/29 01:38:24;;;;;;;8.32;4.57;;;;;;;-143.53;100.00;58366.03;2085788;28;20203;-69
2022/04/29 01:39:25;;;;;;;8.55;4.93;;;;;;;-143.53;100.00;58366.03;2084170;28;20208;-69
2022/04/29 01:40:27;;;;;;;9.45;4.80;;;;;;;-143.53;100.00;58366.03;2084741;28;20328;-69
2022/04/29 01:41:29;;;;;;;8.43;4.95;;;;;;;-143.53;100.00;58366.03;2082530;28;20231;-69
2022/04/29 01:42:30;;;;;;;9.45;5.30;;;;;;;-143.53;100.00;58366.03;2091828;28;20195;-69
2022/04/29 01:43:34;;;;;;;12.18;5.20;;;;;;;-143.53;100.00;58366.03;2084544;28;20691;-69
2022/04/29 01:44:35;;;;;;;11.25;5.93;;;;;;;-143.53;100.00;58366.03;2084813;28;20240;-69
2022/04/29 01:45:37;;;;;;;7.68;5.57;;;;;;;-143.53;100.00;58366.03;2075431;28;20561;-69
2022/04/29 01:46:38;;;;;;;10.55;5.65;;;;;;;-143.53;100.00;58366.03;2088435;28;20204;-69
2022/04/29 01:47:40;;;;;;;12.98;5.85;;;;;;;-143.53;100.00;58366.03;2079725;28;20201;-69
2022/04/29 01:48:41;;;;;;;8.05;5.43;;;;;;;-143.53;100.00;58366.03;2084542;28;20192;-69
2022/04/29 01:49:43;;;;;;;7.88;5.22;;;;;;;-143.53;100.00;58366.03;2084651;28;20204;-69
2022/04/29 01:50:44;;;;;;;8.50;4.97;;;;;;;-143.53;100.00;58366.03;2077669;28;20963;-69
2022/04/29 01:51:46;;;;;;;8.98;5.13;;;;;;;-143.53;100.00;58366.03;2092652;28;20203;-68
2022/04/29 01:52:47;;;;;;;7.07;5.07;;;;;;;-143.53;100.00;58366.03;2087307;28;20200;-69
2022/04/29 01:53:53;;;;;;;8.63;5.28;;;;;;;-143.53;100.00;58366.03;2086197;28;20240;-69
2022/04/29 01:54:55;;;;;;;7.90;5.22;;;;;;;-143.53;100.00;58366.03;2083887;28;20701;-69
2022/04/29 01:55:57;;;;;;;9.07;5.22;;;;;;;-143.53;100.00;58366.03;2070395;28;20450;-69
2022/04/29 01:56:58;;;;;;;10.77;5.85;;;;;;;-143.53;100.00;58366.03;2087014;28;20208;-69
2022/04/29 01:58:00;;;;;;;6.88;4.63;;;;;;;-143.53;100.00;58366.03;2086377;28;20550;-69
2022/04/29 01:59:02;;;;;;;10.20;5.68;;;;;;;-143.53;100.00;58366.03;2083509;28;20194;-68
2022/04/29 02:00:11;;;;;;;8.07;5.32;;;;;;;-143.53;100.00;58366.03;2083768;28;20250;-68
2022/04/29 02:01:13;;;;;;;10.00;5.15;;;;;;;-143.53;100.00;58366.03;2075215;28;20231;-69
2022/04/29 02:02:16;;;;;;;9.60;5.30;;;;;;;-143.53;100.00;58366.03;2087047;28;20197;-68
2022/04/29 02:03:18;;;;;;;9.15;5.00;;;;;;;-143.53;100.00;58366.03;2085389;28;20199;-68
2022/04/29 02:04:20;;;;;;;7.70;5.30;;;;;;;-143.53;100.00;58366.03;2087270;28;20644;-68
2022/04/29 02:05:23;;;;;;;9.80;5.60;;;;;;;-143.53;100.00;58366.03;2085938;28;20711;-68
2022/04/29 02:06:26;;;;;;;8.10;4.80;;;;;;;-143.53;100.00;58366.03;2081451;28;20215;-69
2022/04/29 02:07:27;;;;;;;9.32;5.80;;;;;;;-143.53;100.00;58366.03;2092995;28;20214;-69
2022/04/29 02:08:29;;;;;;;9.98;6.55;;;;;;;-143.53;100.00;58366.03;2086159;28;20208;-69
2022/04/29 02:09:30;;;;;;;10.63;6.35;;;;;;;-143.53;100.00;58366.03;2085306;28;20205;-69
2022/04/29 02:10:32;;;;;;;8.35;5.63;;;;;;;-143.53;100.00;58366.03;2074315;28;20200;-67
2022/04/29 02:11:34;;;;;;;12.20;5.95;;;;;;;-143.53;100.00;58366.03;2093429;28;20196;-68
2022/04/29 02:12:36;;;;;;;10.05;5.45;;;;;;;-143.53;100.00;58366.03;2093333;28;20196;-68
2022/04/29 02:13:38;;;;;;;9.60;5.60;;;;;;;-143.53;100.00;58366.03;2084413;28;20208;-68
2022/04/29 02:14:42;;;;;;;8.60;5.97;;;;;;;-143.53;100.00;58366.03;2083505;28;20555;-68
2022/04/29 02:15:44;;;;;;;9.35;6.10;;;;;;;-143.53;100.00;58366.03;2076920;28;20645;-68
2022/04/29 02:16:46;;;;;;;9.90;5.72;;;;;;;-143.53;100.00;58366.03;2075211;28;20215;-68
2022/04/29 02:17:47;;;;;;;7.80;5.63;;;;;;;-143.53;100.00;58366.03;2075222;28;20205;-68
2022/04/29 02:18:49;;;;;;;8.48;5.70;;;;;;;-143.53;100.00;58366.03;2083734;28;20230;-68
2022/04/29 02:19:50;;;;;;;11.65;5.95;;;;;;;-143.53;100.00;58366.03;2085219;28;20207;-68
2022/04/29 02:20:52;;;;;;;11.48;5.70;;;;;;;-143.53;100.00;58366.03;2078548;28;20226;-68
2022/04/29 02:21:53;;;;;;;13.00;5.85;;;;;;;-143.53;100.00;58366.03;2089903;28;20200;-68
2022/04/29 02:22:55;;;;;;;8.13;6.13;;;;;;;-143.53;100.00;58366.03;2088393;28;20200;-68
2022/04/29 02:23:57;;;;;;;8.73;5.45;;;;;;;-143.53;100.00;58366.03;2085134;28;20200;-68
2022/04/29 02:24:59;;;;;;;7.72;6.35;;;;;;;-143.53;100.00;58366.03;2085186;28;20201;-68
2022/04/29 02:26:00;;;;;;;13.85;6.05;;;;;;;-143.53;100.00;58366.03;2070645;28;20711;-68
2022/04/29 02:27:04;;;;;;;8.85;5.05;;;;;;;-143.53;100.00;58366.03;2089704;28;20193;-68
2022/04/29 02:28:05;;;;;;;8.60;5.97;;;;;;;-143.53;100.00;58366.03;2086937;28;20242;-68
2022/04/29 02:29:07;;;;;;;8.95;5.70;;;;;;;-143.53;100.00;58366.03;2083219;28;20204;-69
2022/04/29 02:30:09;;;;;;;10.32;5.88;;;;;;;-143.53;100.00;58366.03;2084529;28;20192;-68
2022/04/29 02:31:11;;;;;;;12.10;5.30;;;;;;;-143.53;100.00;58366.03;2076769;28;20754;-68
2022/04/29 02:32:13;;;;;;;9.38;5.45;;;;;;;-143.53;100.00;58366.03;2087408;28;20227;-69
2022/04/29 02:33:14;;;;;;;9.07;5.47;;;;;;;-143.53;100.00;58366.03;2085032;28;20223;-68
2022/04/29 02:34:16;;;;;;;9.10;5.30;;;;;;;-143.53;100.00;58366.03;2083190;28;20196;-68
2022/04/29 02:35:17;;;;;;;9.63;4.90;;;;;;;-143.53;100.00;58366.03;2084014;28;20549;-69
2022/04/29 02:36:19;;;;;;;13.02;5.50;;;;;;;-143.53;100.00;58366.03;2076224;28;20227;-69
2022/04/29 02:37:21;;;;;;;6.90;4.57;;;;;;;-143.53;100.00;58366.03;2086939;28;20715;-68
2022/04/29 02:38:22;;;;;;;7.60;4.88;;;;;;;-143.53;100.00;58366.03;2085169;28;20607;-69
2022/04/29 02:39:24;;;;;;;10.35;5.32;;;;;;;-143.53;100.00;58366.03;2083972;28;20201;-68
2022/04/29 02:40:25;;;;;;;8.45;5.03;;;;;;;-143.53;100.00;58366.03;2082156;28;20703;-68
2022/04/29 02:41:27;;;;;;;12.50;5.68;;;;;;;-143.53;100.00;58366.03;2077638;28;20212;-68
2022/04/29 02:42:28;;;;;;;9.75;6.20;;;;;;;-143.53;100.00;58366.03;2079085;28;20204;-68
2022/04/29 02:43:30;;;;;;;6.45;4.63;;;;;;;-143.53;100.00;58366.03;2083091;28;20222;-69
2022/04/29 02:44:31;;;;;;;12.57;5.55;;;;;;;-143.53;100.00;58366.03;2084094;28;20254;-68
2022/04/29 02:45:34;;;;;;;9.07;5.07;;;;;;;-143.53;100.00;58366.03;2073075;28;20208;-67
2022/04/29 02:46:35;;;;;;;8.30;5.25;;;;;;;-143.53;100.00;58366.03;2087763;28;20208;-68
2022/04/29 02:47:37;;;;;;;9.57;6.03;;;;;;;-143.53;100.00;58366.03;2079702;28;20192;-68
2022/04/29 02:48:38;;;;;;;6.50;5.20;;;;;;;-143.53;100.00;58366.03;2082921;28;20204;-68
2022/04/29 02:49:42;;;;;;;7.93;6.10;;;;;;;-143.53;100.00;58366.03;2085477;28;20306;-68
2022/04/29 02:50:44;;;;;;;11.68;5.40;;;;;;;-143.53;100.00;58366.03;2073201;28;20196;-68
2022/04/29 02:51:46;;;;;;;8.00;6.22;;;;;;;-143.53;100.00;58366.03;2086220;28;20719;-68
2022/04/29 02:52:47;;;;;;;7.45;5.00;;;;;;;-143.53;100.00;58366.03;2091111;28;20192;-68
2022/04/29 02:53:49;;;;;;;9.32;6.55;;;;;;;-143.53;100.00;58366.03;2083368;28;20203;-68
2022/04/29 02:54:51;;;;;;;8.60;5.55;;;;;;;-143.53;100.00;58366.03;2083639;28;20200;-68
2022/04/29 02:55:52;;;;;;;13.32;6.30;;;;;;;-143.53;100.00;58366.03;2072820;28;20238;-69
2022/04/29 02:56:54;;;;;;;8.13;5.88;;;;;;;-143.53;100.00;58366.03;2087600;28;20196;-68
2022/04/29 02:57:55;;;;;;;14.15;6.65;;;;;;;-143.53;100.00;58366.03;2084934;28;20208;-68
2022/04/29 02:58:57;;;;;;;8.90;6.25;;;;;;;-143.53;100.00;58366.03;2081381;28;20203;-68
2022/04/29 02:59:58;;;;;;;9.18;6.47;;;;;;;-143.53;100.00;58366.03;2082026;28;20204;-68
2022/04/29 03:01:02;;;;;;;8.25;6.03;;;;;;;-143.53;100.00;58366.03;2074494;28;20221;-69
2022/04/29 03:02:04;;;;;;;14.23;6.35;;;;;;;-143.53;100.00;58366.03;2086938;28;20193;-68
2022/04/29 03:03:06;;;;;;;7.88;5.45;;;;;;;-143.53;100.00;58366.03;2084906;28;20273;-68
2022/04/29 03:04:07;;;;;;;13.27;5.88;;;;;;;-143.53;100.00;58366.03;2082591;28;20212;-68
2022/04/29 03:05:09;;;;;;;5.43;4.47;;;;;;;-143.53;100.00;58366.03;2082835;28;20211;-68
2022/04/29 03:06:11;;;;;;;7.13;5.57;;;;;;;-143.53;100.00;58366.03;2074587;28;20243;-68
2022/04/29 03:07:12;;;;;;;6.75;4.90;;;;;;;-143.53;100.00;58366.03;2084206;28;20193;-68
2022/04/29 03:08:14;;;;;;;8.43;5.60;;;;;;;-143.53;100.00;58366.03;2083156;28;20198;-69
2022/04/29 03:09:16;;;;;;;9.57;6.40;;;;;;;-143.53;100.00;58366.03;2083271;28;20221;-68
2022/04/29 03:10:18;;;;;;;10.60;6.20;;;;;;;-143.53;100.00;58366.03;2083687;28;20204;-68
2022/04/29 03:11:19;;;;;;;15.50;5.80;;;;;;;-143.53;100.00;58366.03;2077322;28;20217;-68
2022/04/29 03:12:23;;;;;;;8.00;5.57;;;;;;;-143.53;100.00;58366.03;2089073;28;20199;-68
2022/04/29 03:13:26;;;;;;;8.60;4.90;;;;;;;-143.53;100.00;58366.03;2090151;28;20318;-68
2022/04/29 03:14:29;;;;;;;10.48;6.25;;;;;;;-143.53;100.00;58366.03;2083057;28;20200;-68
2022/04/29 03:15:30;;;;;;;6.90;5.38;;;;;;;-143.53;100.00;58366.03;2076669;28;20203;-67
2022/04/29 03:16:33;;;;;;;8.85;6.32;;;;;;;-143.53;100.00;58366.03;2093336;28;20207;-68
2022/04/29 03:18:54;;;;;;;12.80;6.03;;;;;;;-143.53;100.00;58366.03;2082593;28;20659;-68
2022/04/29 03:19:59;;;;;;;9.73;6.22;;;;;;;-143.53;100.00;58366.03;2082955;28;20204;-68
2022/04/29 03:21:01;;;;;;;9.05;6.00;;;;;;;-143.53;100.00;58366.03;2075695;28;20723;-68
2022/04/29 03:22:02;;;;;;;8.63;5.85;;;;;;;-143.53;100.00;58366.03;2087656;28;20203;-68
2022/04/29 03:23:05;;;;;;;9.82;6.30;;;;;;;-143.53;100.00;58366.03;2086352;28;20197;-68
2022/04/29 03:24:07;;;;;;;7.38;4.93;;;;;;;-143.53;100.00;58366.03;2081810;28;20211;-68
2022/04/29 03:25:09;;;;;;;9.48;6.10;;;;;;;-143.53;100.00;58366.03;2083473;28;20201;-68
2022/04/29 03:26:10;;;;;;;8.80;5.88;;;;;;;-143.53;100.00;58366.03;2072987;28;20220;-68
2022/04/29 03:27:12;;;;;;;7.40;5.40;;;;;;;-143.53;100.00;58366.03;2079123;28;20212;-68
2022/04/29 03:28:13;;;;;;;13.30;6.22;;;;;;;-143.53;100.00;58366.03;2079233;28;20235;-68
2022/04/29 03:29:15;;;;;;;16.00;6.38;;;;;;;-143.53;100.00;58366.03;2082742;28;20247;-68
2022/04/29 03:30:17;;;;;;;9.23;5.47;;;;;;;-143.53;100.00;58366.03;2083891;28;20199;-68
2022/04/29 03:31:19;;;;;;;12.02;5.45;;;;;;;-143.53;100.00;58366.03;2074810;28;20696;-68
2022/04/29 03:32:21;;;;;;;9.75;6.05;;;;;;;-143.53;100.00;58366.03;2093316;28;20203;-68
2022/04/29 03:33:22;;;;;;;8.20;6.05;;;;;;;-143.53;100.00;58366.03;2086598;28;20204;-68
2022/04/29 03:34:24;;;;;;;10.40;6.88;;;;;;;-143.53;100.00;58366.03;2084274;28;20206;-68
2022/04/29 03:35:26;;;;;;;8.70;6.00;;;;;;;-143.53;100.00;58366.03;2080116;28;20205;-69
2022/04/29 03:36:28;;;;;;;8.13;5.68;;;;;;;-143.53;100.00;58366.03;2080577;28;20778;-68
2022/04/29 03:37:29;;;;;;;9.38;5.75;;;;;;;-143.53;100.00;58366.03;2082898;28;20215;-69
2022/04/29 03:38:31;;;;;;;8.82;5.88;;;;;;;-143.53;100.00;58366.03;2085326;28;20196;-69
2022/04/29 03:39:33;;;;;;;11.98;6.03;;;;;;;-143.53;100.00;58366.03;2081609;28;20246;-68
2022/04/29 03:40:34;;;;;;;11.90;6.90;;;;;;;-143.53;100.00;58366.03;2073307;28;20205;-68
2022/04/29 03:41:36;;;;;;;7.55;5.72;;;;;;;-143.53;100.00;58366.03;2093141;28;20198;-69
2022/04/29 03:42:38;;;;;;;10.45;5.40;;;;;;;-143.53;100.00;58366.03;2092225;28;20199;-69
2022/04/29 03:43:39;;;;;;;10.70;6.72;;;;;;;-143.53;100.00;58366.03;2084331;28;20257;-68
2022/04/29 03:44:41;;;;;;;11.68;5.95;;;;;;;-143.53;100.00;58366.03;2082350;28;20228;-68
2022/04/29 03:45:42;;;;;;;9.77;6.80;;;;;;;-143.53;100.00;58366.03;2074005;28;20661;-68
2022/04/29 03:46:44;;;;;;;9.50;6.22;;;;;;;-143.53;100.00;58366.03;2090417;28;20196;-68
2022/04/29 03:47:46;;;;;;;7.65;5.60;;;;;;;-143.53;100.00;58366.03;2088351;28;20215;-68
2022/04/29 03:50:28;;;;;;;11.50;5.18;;;;;;;-143.53;100.00;58366.03;2075090;28;20201;-68
2022/04/29 03:51:30;;;;;;;8.90;6.00;;;;;;;-143.53;100.00;58366.03;2066295;28;20725;-69
2022/04/29 03:52:31;;;;;;;8.32;5.65;;;;;;;-143.53;100.00;58366.03;2074994;28;20204;-68
2022/04/29 03:53:33;;;;;;;9.35;5.88;;;;;;;-143.53;100.00;58366.03;2075872;28;20849;-68
2022/04/29 03:54:34;;;;;;;10.27;5.50;;;;;;;-143.53;100.00;58366.03;2075666;28;20198;-68
2022/04/29 03:55:36;;;;;;;8.52;6.03;;;;;;;-143.53;100.00;58366.03;2066187;28;20193;-68
2022/04/29 03:56:38;;;;;;;9.35;6.00;;;;;;;-143.53;100.00;58366.03;2076562;28;20808;-68
2022/04/29 03:57:39;;;;;;;11.10;5.97;;;;;;;-143.53;100.00;58366.03;2075852;28;20263;-68
2022/04/29 03:58:41;;;;;;;8.15;6.10;;;;;;;-143.53;100.00;58366.03;2074328;28;20194;-68
2022/04/29 03:59:42;;;;;;;8.13;5.30;;;;;;;-143.53;100.00;58366.03;2072502;28;20268;-68
2022/04/29 04:00:44;;;;;;;9.05;6.20;;;;;;;-143.53;100.00;58366.03;2065652;28;20202;-69
2022/04/29 04:01:46;;;;;;;10.27;6.10;;;;;;;-143.53;100.00;58366.03;2074043;28;20869;-69
2022/04/29 04:02:49;;;;;;;10.27;6.53;;;;;;;-143.53;100.00;58366.03;2074521;28;20228;-68
2022/04/29 04:03:58;;;;;;;7.28;4.93;;;;;;;-143.53;100.00;58366.03;2075839;28;20786;-68
2022/04/29 04:04:59;;;;;;;11.38;5.68;;;;;;;-143.53;100.00;58366.03;2075479;28;20203;-68
2022/04/29 04:07:22;;;;;;;8.93;5.97;;;;;;;-143.53;100.00;58366.03;2071310;28;20197;-68
2022/04/29 04:08:23;;;;;;;11.15;6.93;;;;;;;-143.53;100.00;58366.03;2074660;28;20197;-68
2022/04/29 04:09:25;;;;;;;8.40;5.50;;;;;;;-143.53;100.00;58366.03;2074705;28;20807;-68
2022/04/29 04:10:26;;;;;;;11.07;6.10;;;;;;;-143.53;100.00;58366.03;2064941;28;20194;-69
2022/04/29 04:11:28;;;;;;;11.82;5.63;;;;;;;-143.53;100.00;58366.03;2053711;28;20228;-68
2022/04/29 04:12:46;;;;;;;9.35;5.60;;;;;;;-143.53;100.00;58366.03;2074434;28;20201;-68
2022/04/29 04:13:47;;;;;;;12.07;5.65;;;;;;;-143.53;100.00;58366.03;2072497;28;20204;-68
2022/04/29 04:14:49;;;;;;;8.02;5.50;;;;;;;-143.53;100.00;58366.03;2075134;28;20201;-68
2022/04/29 04:15:51;;;;;;;7.30;4.97;;;;;;;-143.53;100.00;58366.03;2063857;28;20607;-69
2022/04/29 04:16:52;;;;;;;9.25;5.63;;;;;;;-143.53;100.00;58366.03;2073500;28;20193;-68
2022/04/29 04:17:54;;;;;;;14.82;6.72;;;;;;;-143.53;100.00;58366.03;2072911;28;20211;-68
2022/04/29 04:18:55;;;;;;;8.50;5.38;;;;;;;-143.53;100.00;58366.03;2062133;28;20202;-68
2022/04/29 04:19:57;;;;;;;10.93;6.13;;;;;;;-143.53;100.00;58366.03;2062238;28;20202;-68
2022/04/29 04:20:58;;;;;;;7.78;5.47;;;;;;;-143.53;100.00;58366.03;2065904;28;20221;-68
2022/04/29 04:22:00;;;;;;;13.75;6.32;;;;;;;-143.53;100.00;58366.03;2080246;28;20213;-68
2022/04/29 04:23:02;;;;;;;7.70;5.40;;;;;;;-143.53;100.00;58366.03;2087770;28;20196;-68
2022/04/29 04:24:04;;;;;;;11.63;6.22;;;;;;;-143.53;100.00;58366.03;2083085;28;20201;-68
2022/04/29 04:25:07;;;;;;;9.40;6.80;;;;;;;-143.53;100.00;58366.03;2084061;28;20227;-68
2022/04/29 04:26:09;;;;;;;8.25;5.80;;;;;;;-143.53;100.00;58366.03;2076271;28;20228;-68
2022/04/29 04:27:10;;;;;;;10.23;5.55;;;;;;;-143.53;100.00;58366.03;2086789;28;20617;-68
2022/04/29 04:28:13;;;;;;;7.60;5.85;;;;;;;-143.53;100.00;58366.03;2084363;28;20664;-68
2022/04/29 04:29:14;;;;;;;9.35;5.88;;;;;;;-143.53;100.00;58366.03;2082688;28;20200;-68
2022/04/29 04:30:16;;;;;;;10.73;5.93;;;;;;;-143.53;100.00;58366.03;2085710;28;20208;-68
2022/04/29 04:31:21;;;;;;;10.80;6.20;;;;;;;-143.53;100.00;58366.03;2081287;28;20256;-68
2022/04/29 04:32:23;;;;;;;8.98;6.18;;;;;;;-143.53;100.00;58366.03;2093026;28;20702;-68
2022/04/29 04:33:24;;;;;;;9.93;5.93;;;;;;;-143.53;100.00;58366.03;2083288;28;20201;-68
2022/04/29 04:35:46;;;;;;;12.75;6.25;;;;;;;-143.53;100.00;58366.03;2072964;28;20200;-68
2022/04/29 04:36:52;;;;;;;9.35;5.35;;;;;;;-143.53;100.00;58366.03;2085274;28;20205;-68
2022/04/29 04:37:54;;;;;;;9.00;5.38;;;;;;;-143.53;100.00;58366.03;2084671;28;20217;-68
2022/04/29 04:38:56;;;;;;;9.52;5.40;;;;;;;-143.53;100.00;58366.03;2084150;28;20855;-68
2022/04/29 04:40:00;;;;;;;7.68;5.75;;;;;;;-143.53;100.00;58366.03;2084806;28;20756;-68
2022/04/29 04:41:02;;;;;;;9.55;5.75;;;;;;;-143.53;100.00;58366.03;2075642;28;20226;-68
2022/04/29 04:42:03;;;;;;;11.10;6.00;;;;;;;-143.53;100.00;58366.03;2089566;28;20196;-68
2022/04/29 04:43:05;;;;;;;8.65;5.88;;;;;;;-143.53;100.00;58366.03;2082922;28;20654;-68
2022/04/29 04:44:06;;;;;;;7.45;5.22;;;;;;;-143.53;100.00;58366.03;2086778;28;20232;-68
2022/04/29 04:45:09;;;;;;;10.65;5.50;;;;;;;-143.53;100.00;58366.03;2081522;28;20211;-68
2022/04/29 04:46:12;;;;;;;11.57;6.03;;;;;;;-143.53;100.00;58366.03;2072316;28;20225;-68
2022/04/29 04:47:14;;;;;;;14.57;6.72;;;;;;;-143.53;100.00;58366.03;2085789;28;20693;-68
2022/04/29 04:48:16;;;;;;;8.32;5.75;;;;;;;-143.53;100.00;58366.03;2084095;28;20409;-68